createdAt,value
2022-07-28T00:01:14.082Z,67.60
2022-07-28T00:03:47.165Z,67.80
2022-07-28T00:06:15.460Z,67.90
2022-07-28T00:08:43.374Z,68.20
2022-07-28T00:11:11.428Z,68.20
2022-07-28T00:13:39.552Z,68.60
2022-07-28T00:16:08.358Z,69.00
2022-07-28T00:18:36.314Z,69.40
2022-07-28T00:21:05.623Z,69.80
2022-07-28T00:23:38.474Z,70.10
2022-07-28T00:26:08.514Z,70.60
2022-07-28T00:28:36.494Z,71.20
2022-07-28T00:31:06.169Z,72.20
2022-07-28T00:33:36.751Z,71.80
2022-07-28T00:36:07.134Z,72.40
2022-07-28T00:38:38.301Z,72.80
2022-07-28T00:41:14.842Z,73.20
2022-07-28T00:43:44.378Z,73.70
2022-07-28T00:46:12.916Z,74.10
2022-07-28T00:48:43.678Z,74.80
2022-07-28T00:51:13.235Z,75.30
2022-07-28T00:53:41.599Z,75.80
2022-07-28T00:56:10.261Z,76.20
2022-07-28T00:58:39.388Z,76.50
2022-07-28T01:01:08.251Z,76.90
2022-07-28T01:03:40.157Z,77.60
2022-07-28T01:06:23.843Z,78.20
2022-07-28T01:08:59.622Z,78.60
2022-07-28T01:11:42.902Z,79.10
2022-07-28T01:14:18.063Z,79.60
2022-07-28T01:16:53.526Z,79.80
2022-07-28T01:19:36.691Z,80.00
2022-07-28T01:22:08.926Z,80.30
2022-07-28T01:24:48.453Z,80.60
2022-07-28T01:27:30.791Z,80.90
2022-07-28T01:30:09.480Z,81.20
2022-07-28T01:32:43.178Z,81.30
2022-07-28T01:35:17.543Z,81.40
2022-07-28T01:37:48.951Z,81.40
2022-07-28T01:40:20.805Z,81.40
2022-07-28T01:42:52.790Z,81.70
2022-07-28T01:45:22.200Z,82.20
2022-07-28T01:47:52.497Z,82.50
2022-07-28T01:50:23.598Z,82.90
2022-07-28T01:52:52.764Z,83.40
2022-07-28T01:55:23.185Z,83.80
2022-07-28T01:57:54.155Z,84.30
2022-07-28T02:00:22.540Z,84.60
2022-07-28T02:02:53.618Z,85.00
2022-07-28T02:05:24.421Z,85.40
2022-07-28T02:07:54.339Z,85.70
2022-07-28T02:10:23.344Z,86.20
2022-07-28T02:12:53.789Z,86.60
2022-07-28T02:15:23.272Z,87.00
2022-07-28T02:17:53.698Z,87.50
2022-07-28T02:20:23.598Z,87.90
2022-07-28T02:22:52.871Z,88.20
2022-07-28T02:25:21.377Z,88.60
2022-07-28T02:27:55.247Z,88.90
2022-07-28T02:30:29.562Z,89.30
2022-07-28T02:33:03.445Z,89.70
2022-07-28T02:35:35.804Z,90.00
2022-07-28T02:38:10.443Z,90.10
2022-07-28T02:40:41.460Z,90.30
2022-07-28T02:43:13.813Z,90.40
2022-07-28T02:45:44.802Z,90.50
2022-07-28T02:48:18.428Z,90.40
2022-07-28T02:50:47.490Z,90.40
2022-07-28T02:53:16.535Z,90.50
2022-07-28T02:55:45.989Z,90.60
2022-07-28T02:58:15.164Z,90.70
2022-07-28T03:00:44.210Z,90.90
2022-07-28T03:03:14.289Z,91.00
2022-07-28T03:05:42.499Z,91.10
2022-07-28T03:08:10.708Z,91.30
2022-07-28T03:10:38.916Z,91.40
2022-07-28T03:13:07.919Z,91.50
2022-07-28T03:15:37.162Z,91.70
2022-07-28T03:18:06.280Z,91.80
2022-07-28T03:20:36.079Z,91.90
2022-07-28T03:23:05.690Z,92.00
2022-07-28T03:25:39.386Z,92.20
2022-07-28T03:28:11.027Z,92.20
2022-07-28T03:30:42.725Z,92.30
2022-07-28T03:33:11.187Z,92.30
2022-07-28T03:35:44.812Z,92.50
2022-07-28T03:38:17.764Z,92.80
2022-07-28T03:40:47.277Z,93.20
2022-07-28T03:43:15.955Z,93.10
2022-07-28T03:45:45.996Z,93.20
2022-07-28T03:48:15.463Z,93.20
2022-07-28T03:50:44.714Z,93.10
2022-07-28T03:53:20.012Z,93.00
2022-07-28T03:55:50.959Z,92.90
2022-07-28T03:58:19.342Z,92.90
2022-07-28T04:00:47.955Z,93.00
2022-07-28T04:03:35.257Z,93.20
2022-07-28T04:06:06.007Z,93.20
2022-07-28T04:08:33.868Z,93.50
2022-07-28T04:11:01.963Z,93.60
2022-07-28T04:13:31.974Z,93.70
2022-07-28T04:16:00.648Z,93.80
2022-07-28T04:18:28.669Z,93.80
2022-07-28T04:20:56.764Z,93.70
2022-07-28T04:23:26.076Z,93.60
2022-07-28T04:25:54.028Z,93.50
2022-07-28T04:28:21.879Z,93.40
2022-07-28T04:30:49.782Z,93.10
2022-07-28T04:33:19.393Z,92.30
2022-07-28T04:35:47.907Z,90.00
2022-07-28T04:38:17.868Z,86.00
2022-07-28T04:40:48.143Z,83.20
2022-07-28T04:43:16.422Z,80.50
2022-07-28T04:45:52.929Z,78.60
2022-07-28T04:48:21.604Z,79.10
2022-07-28T04:50:51.175Z,78.20
2022-07-28T04:53:19.256Z,76.30
2022-07-28T04:55:49.418Z,74.10
2022-07-28T04:58:18.446Z,72.30
2022-07-28T05:00:50.109Z,70.20
2022-07-28T05:03:18.892Z,69.40
2022-07-28T05:05:49.166Z,69.80
2022-07-28T05:08:26.364Z,70.00
2022-07-28T05:10:56.902Z,71.20
2022-07-28T05:13:33.750Z,73.80
2022-07-28T05:16:02.492Z,74.30
2022-07-28T05:18:30.685Z,75.10
2022-07-28T05:21:03.412Z,74.30
2022-07-28T05:23:31.397Z,69.40
2022-07-28T05:26:01.987Z,65.50
2022-07-28T05:28:29.904Z,62.40
2022-07-28T05:30:57.847Z,59.10
2022-07-28T05:33:29.773Z,55.90
2022-07-28T05:36:00.264Z,53.80
2022-07-28T05:38:29.005Z,52.30
2022-07-28T05:40:57.042Z,51.10
2022-07-28T05:43:26.421Z,52.70
2022-07-28T05:45:54.443Z,55.20
2022-07-28T05:48:23.910Z,56.80
2022-07-28T05:50:52.383Z,55.80
2022-07-28T05:53:21.192Z,53.70
2022-07-28T05:55:59.579Z,54.60
2022-07-28T05:58:31.646Z,56.00
2022-07-28T06:01:01.323Z,56.20
2022-07-28T06:03:30.583Z,57.60
2022-07-28T06:06:15.155Z,59.70
2022-07-28T06:08:45.866Z,61.20
2022-07-28T06:11:20.451Z,62.40
2022-07-28T06:13:53.006Z,63.80
2022-07-28T06:16:22.830Z,62.70
2022-07-28T06:18:51.945Z,61.40
2022-07-28T06:21:20.057Z,60.70
2022-07-28T06:23:47.961Z,57.70
2022-07-28T06:26:16.404Z,54.90
2022-07-28T06:28:44.306Z,52.40
2022-07-28T06:31:13.714Z,50.40
2022-07-28T06:33:41.616Z,49.50
2022-07-28T06:36:09.567Z,50.50
2022-07-28T06:38:37.452Z,51.00
2022-07-28T06:41:05.520Z,49.70
2022-07-28T06:43:36.817Z,47.10
2022-07-28T06:46:07.108Z,44.90
2022-07-28T06:48:40.039Z,41.20
2022-07-28T06:51:08.030Z,40.00
2022-07-28T06:53:35.972Z,39.80
2022-07-28T06:56:05.539Z,40.10
2022-07-28T06:58:34.147Z,40.60
2022-07-28T07:01:03.164Z,40.90
2022-07-28T07:03:31.064Z,40.30
2022-07-28T07:06:00.395Z,39.30
2022-07-28T07:08:28.377Z,39.90
2022-07-28T07:10:56.998Z,41.10
2022-07-28T07:13:25.186Z,43.40
2022-07-28T07:15:53.427Z,45.70
2022-07-28T07:18:21.466Z,46.00
2022-07-28T07:20:49.291Z,45.20
2022-07-28T07:23:18.468Z,42.40
2022-07-28T07:25:46.299Z,41.60
2022-07-28T07:28:14.159Z,41.80
2022-07-28T07:30:42.027Z,40.30
2022-07-28T07:33:10.638Z,38.70
2022-07-28T07:35:38.920Z,37.90
2022-07-28T07:38:06.966Z,36.80
2022-07-28T07:40:36.498Z,36.40
2022-07-28T07:43:04.552Z,36.70
2022-07-28T07:45:34.241Z,35.90
2022-07-28T07:48:02.431Z,34.20
2022-07-28T07:50:30.745Z,33.60
2022-07-28T07:52:58.587Z,33.00
2022-07-28T07:55:26.553Z,32.40
2022-07-28T07:58:04.216Z,31.00
2022-07-28T08:00:32.766Z,30.80
2022-07-28T08:03:01.363Z,30.20
2022-07-28T08:05:35.734Z,30.90
2022-07-28T08:08:05.909Z,30.90
2022-07-28T08:10:33.945Z,30.70
2022-07-28T08:13:03.349Z,30.00
2022-07-28T08:15:31.497Z,29.60
2022-07-28T08:17:59.544Z,29.40
2022-07-28T08:20:27.412Z,28.90
2022-07-28T08:22:58.107Z,28.20
2022-07-28T08:25:26.197Z,28.10
2022-07-28T08:27:54.086Z,28.80
2022-07-28T08:30:28.858Z,28.10
2022-07-28T08:33:00.529Z,27.90
2022-07-28T08:35:33.976Z,28.00
2022-07-28T08:38:03.385Z,28.10
2022-07-28T08:40:32.775Z,27.90
2022-07-28T08:43:07.972Z,28.00
2022-07-28T08:45:39.909Z,27.90
2022-07-28T08:48:11.636Z,27.10
2022-07-28T08:50:40.134Z,26.80
2022-07-28T08:53:10.397Z,26.70
2022-07-28T08:55:38.946Z,26.90
2022-07-28T08:58:08.506Z,26.90
2022-07-28T09:00:37.854Z,26.50
2022-07-28T09:03:06.724Z,26.70
2022-07-28T09:05:40.669Z,27.00
2022-07-28T09:08:09.117Z,26.60
2022-07-28T09:10:37.114Z,27.10
2022-07-28T09:13:05.094Z,26.30
2022-07-28T09:15:34.654Z,26.00
2022-07-28T09:18:03.950Z,25.90
2022-07-28T09:21:27.816Z,25.70
2022-07-28T09:23:55.799Z,25.30
2022-07-28T09:26:23.628Z,26.00
2022-07-28T09:28:53.505Z,27.20
2022-07-28T09:31:23.350Z,26.50
2022-07-28T09:33:57.823Z,26.70
2022-07-28T09:36:25.799Z,26.50
2022-07-28T09:38:53.809Z,25.90
2022-07-28T09:41:22.355Z,26.60
2022-07-28T09:43:55.273Z,26.20
2022-07-28T09:46:25.901Z,26.20
2022-07-28T09:48:59.485Z,26.50
2022-07-28T09:51:29.074Z,26.70
2022-07-28T09:54:10.870Z,26.80
2022-07-28T09:56:40.374Z,26.30
2022-07-28T09:59:09.332Z,26.00
2022-07-28T10:01:53.303Z,25.60
2022-07-28T10:04:33.417Z,26.80
2022-07-28T10:07:10.021Z,27.10
2022-07-28T10:09:38.247Z,26.90
2022-07-28T10:12:20.353Z,27.10
2022-07-28T10:14:48.875Z,26.70
2022-07-28T10:17:28.300Z,26.00
2022-07-28T10:19:58.848Z,26.40
2022-07-28T10:22:29.240Z,26.90
2022-07-28T10:24:59.434Z,27.50
2022-07-28T10:27:28.874Z,27.90
2022-07-28T10:29:59.106Z,27.30
2022-07-28T10:32:29.761Z,27.10
2022-07-28T10:35:05.498Z,27.50
2022-07-28T10:37:39.971Z,27.40
2022-07-28T10:40:11.080Z,27.60
2022-07-28T10:42:40.913Z,27.20
2022-07-28T10:45:12.281Z,26.60
2022-07-28T10:47:40.719Z,26.50
2022-07-28T10:50:11.107Z,25.90
2022-07-28T10:52:51.586Z,26.30
2022-07-28T10:55:34.869Z,26.40
2022-07-28T10:58:11.368Z,27.00
2022-07-28T11:00:55.909Z,27.20
2022-07-28T11:03:39.984Z,26.80
2022-07-28T11:06:30.172Z,26.80
2022-07-28T11:08:59.610Z,26.70
2022-07-28T11:11:47.671Z,27.60
2022-07-28T11:14:33.866Z,28.10
2022-07-28T11:17:17.090Z,28.20
2022-07-28T11:22:47.467Z,28.60
2022-07-28T11:25:19.390Z,28.40
2022-07-28T11:28:05.674Z,27.80
2022-07-28T11:30:53.830Z,27.90
2022-07-28T11:33:24.618Z,28.10
2022-07-28T11:36:00.066Z,28.50
2022-07-28T11:38:29.699Z,28.70
2022-07-28T11:40:57.945Z,29.00
2022-07-28T11:43:39.089Z,29.10
2022-07-28T11:46:24.294Z,28.80
2022-07-28T11:49:16.794Z,28.50
2022-07-28T11:52:16.811Z,28.60
2022-07-28T11:54:54.050Z,29.00
2022-07-28T11:57:25.848Z,29.90
2022-07-28T11:59:57.129Z,30.20
2022-07-28T12:02:27.611Z,31.10
2022-07-28T12:04:58.127Z,31.50
2022-07-28T12:07:35.074Z,31.30
2022-07-28T12:13:29.562Z,30.40
2022-07-28T12:15:57.824Z,30.80
2022-07-28T12:18:25.779Z,31.20
2022-07-28T12:20:55.095Z,31.20
2022-07-28T12:23:38.740Z,31.00
2022-07-28T12:26:13.449Z,31.70
2022-07-28T12:28:51.188Z,31.20
2022-07-28T12:31:19.247Z,31.50
2022-07-28T12:33:47.316Z,32.20
2022-07-28T12:36:18.932Z,33.10
2022-07-28T12:38:47.420Z,32.50
2022-07-28T12:41:18.294Z,32.90
2022-07-28T12:43:53.912Z,33.90
2022-07-28T12:46:23.671Z,34.30
2022-07-28T12:48:57.762Z,34.50
2022-07-28T12:51:36.707Z,34.60
2022-07-28T12:54:06.285Z,34.80
2022-07-28T12:56:46.213Z,34.70
2022-07-28T12:59:15.121Z,34.80
2022-07-28T13:01:51.462Z,35.20
2022-07-28T13:04:39.555Z,35.30
2022-07-28T13:07:10.620Z,35.30
2022-07-28T13:09:46.333Z,35.70
2022-07-28T13:12:19.579Z,35.40
2022-07-28T13:14:51.829Z,35.80
2022-07-28T13:17:20.663Z,35.70
2022-07-28T13:19:48.762Z,35.70
2022-07-28T13:22:27.601Z,35.70
2022-07-28T13:24:56.911Z,34.80
2022-07-28T13:27:26.991Z,34.70
2022-07-28T13:29:57.510Z,34.00
2022-07-28T13:32:25.471Z,33.80
2022-07-28T13:34:54.270Z,33.80
2022-07-28T13:37:22.367Z,34.40
2022-07-28T13:39:54.384Z,34.80
2022-07-28T13:42:23.700Z,34.70
2022-07-28T13:44:53.013Z,34.20
2022-07-28T13:47:21.003Z,33.40
2022-07-28T13:49:49.104Z,33.50
2022-07-28T13:52:32.893Z,33.00
2022-07-28T13:55:05.811Z,34.00
2022-07-28T13:57:36.318Z,33.40
2022-07-28T14:00:08.099Z,33.30
2022-07-28T14:02:36.771Z,32.70
2022-07-28T14:05:05.507Z,32.50
2022-07-28T14:07:33.414Z,32.40
2022-07-28T14:10:02.148Z,32.60
2022-07-28T14:12:29.979Z,33.10
2022-07-28T14:14:57.853Z,33.50
2022-07-28T14:17:43.364Z,34.10
2022-07-28T14:20:13.955Z,34.20
2022-07-28T14:22:41.802Z,34.40
2022-07-28T14:25:11.096Z,34.10
2022-07-28T14:27:39.171Z,34.10
2022-07-28T14:30:08.721Z,34.20
2022-07-28T14:32:39.024Z,34.70
2022-07-28T14:35:07.650Z,34.50
2022-07-28T14:38:11.330Z,34.00
2022-07-28T14:40:23.644Z,34.00
2022-07-28T14:42:51.457Z,34.00
2022-07-28T14:45:19.554Z,33.60
2022-07-28T14:47:48.707Z,33.80
2022-07-28T14:50:16.543Z,34.60
2022-07-28T14:52:45.043Z,35.00
2022-07-28T14:55:13.454Z,34.90
2022-07-28T14:57:48.394Z,35.20
2022-07-28T15:00:20.526Z,34.70
2022-07-28T15:02:51.369Z,34.60
2022-07-28T15:05:19.955Z,34.60
2022-07-28T15:07:49.465Z,34.50
2022-07-28T15:10:17.756Z,34.80
2022-07-28T15:12:45.792Z,34.80
2022-07-28T15:15:14.007Z,35.00
2022-07-28T15:17:41.868Z,35.20
2022-07-28T15:20:12.141Z,35.40
2022-07-28T15:22:40.129Z,35.10
2022-07-28T15:25:08.691Z,35.00
2022-07-28T15:27:38.508Z,35.30
2022-07-28T15:30:10.970Z,35.10
2022-07-28T15:32:54.605Z,35.20
2022-07-28T15:35:26.087Z,35.10
2022-07-28T15:37:53.960Z,35.00
2022-07-28T15:40:22.159Z,34.60
2022-07-28T15:42:50.034Z,34.50
2022-07-28T15:45:18.251Z,34.10
2022-07-28T15:47:46.078Z,34.50
2022-07-28T15:50:14.029Z,34.90
2022-07-28T15:52:43.272Z,35.10
2022-07-28T15:55:11.405Z,35.20
2022-07-28T15:57:39.624Z,35.70
2022-07-28T16:00:09.293Z,35.40
2022-07-28T16:02:37.142Z,35.10
2022-07-28T16:05:05.961Z,35.30
2022-07-28T16:07:35.124Z,35.30
2022-07-28T16:10:05.111Z,35.70
2022-07-28T16:12:33.364Z,35.70
2022-07-28T16:15:01.713Z,35.60
2022-07-28T16:17:29.715Z,35.70
2022-07-28T16:19:58.812Z,35.90
2022-07-28T16:22:30.807Z,36.00
2022-07-28T16:24:58.866Z,36.00
2022-07-28T16:27:28.102Z,35.80
2022-07-28T16:29:55.950Z,36.00
2022-07-28T16:32:25.005Z,36.20
2022-07-28T16:34:53.985Z,36.20
2022-07-28T16:37:22.359Z,36.40
2022-07-28T16:39:50.615Z,36.50
2022-07-28T16:42:18.681Z,36.90
2022-07-28T16:44:50.591Z,36.60
2022-07-28T16:47:18.466Z,36.60
2022-07-28T16:49:46.554Z,37.10
2022-07-28T16:52:14.798Z,37.00
2022-07-28T16:54:42.759Z,37.10
2022-07-28T16:57:10.783Z,36.80
2022-07-28T16:59:48.158Z,36.70
2022-07-28T17:02:19.068Z,37.20
2022-07-28T17:04:47.730Z,37.40
2022-07-28T17:07:15.933Z,37.70
2022-07-28T17:09:44.260Z,37.90
2022-07-28T17:12:12.451Z,37.70
2022-07-28T17:14:40.209Z,37.90
2022-07-28T17:17:08.045Z,37.80
2022-07-28T17:19:39.760Z,38.00
2022-07-28T17:22:11.317Z,38.10
2022-07-28T17:24:39.095Z,38.30
2022-07-28T17:29:54.991Z,38.20
2022-07-28T17:32:22.825Z,38.30
2022-07-28T17:34:52.768Z,38.60
2022-07-28T17:37:21.840Z,38.60
2022-07-28T17:39:52.394Z,38.60
2022-07-28T17:42:20.312Z,38.70
2022-07-28T17:44:49.095Z,39.00
2022-07-28T17:47:16.939Z,39.00
2022-07-28T17:49:45.680Z,39.20
2022-07-28T17:52:15.266Z,39.30
2022-07-28T17:55:01.507Z,39.30
2022-07-28T17:57:35.799Z,39.60
2022-07-28T18:00:07.742Z,39.70
2022-07-28T18:02:39.642Z,39.70
2022-07-28T18:05:10.043Z,39.80
2022-07-28T18:07:50.428Z,39.80
2022-07-28T18:10:24.948Z,40.00
2022-07-28T18:12:55.480Z,40.10
2022-07-28T18:15:24.728Z,40.20
2022-07-28T18:17:55.193Z,40.40
2022-07-28T18:20:24.640Z,40.60
2022-07-28T18:22:53.962Z,40.60
2022-07-28T18:25:22.208Z,40.80
2022-07-28T18:27:50.686Z,41.00
2022-07-28T18:30:18.999Z,40.90
2022-07-28T18:32:47.084Z,41.10
2022-07-28T18:35:15.846Z,41.20
2022-07-28T18:37:46.019Z,41.40
2022-07-28T18:40:16.906Z,41.50
2022-07-28T18:42:46.282Z,41.60
2022-07-28T18:45:14.538Z,41.50
2022-07-28T18:47:47.466Z,41.60
2022-07-28T18:50:30.415Z,41.60
2022-07-28T18:53:07.016Z,41.70
2022-07-28T18:55:40.256Z,41.90
2022-07-28T18:58:10.206Z,41.90
2022-07-28T19:00:44.118Z,42.10
2022-07-28T19:03:22.838Z,42.30
2022-07-28T19:05:53.826Z,42.40
2022-07-28T19:08:22.701Z,42.40
2022-07-28T19:10:54.882Z,42.60
2022-07-28T19:13:22.799Z,42.60
2022-07-28T19:15:52.022Z,42.70
2022-07-28T19:18:24.328Z,42.80
2022-07-28T19:20:55.110Z,43.00
2022-07-28T19:23:26.316Z,43.80
2022-07-28T19:25:58.797Z,43.20
2022-07-28T19:28:29.011Z,43.40
2022-07-28T19:31:10.630Z,43.50
2022-07-28T19:33:43.792Z,43.70
2022-07-28T19:36:14.664Z,43.80
2022-07-28T19:38:44.361Z,43.90
2022-07-28T19:41:14.002Z,44.10
2022-07-28T19:43:44.030Z,44.10
2022-07-28T19:46:14.497Z,44.30
2022-07-28T19:48:45.302Z,44.40
2022-07-28T19:51:17.839Z,44.60
2022-07-28T19:53:48.447Z,44.80
2022-07-28T19:56:18.038Z,44.90
2022-07-28T19:58:50.041Z,45.00
2022-07-28T20:01:18.790Z,45.30
2022-07-28T20:04:03.314Z,45.40
2022-07-28T20:06:43.182Z,45.70
2022-07-28T20:09:14.309Z,45.80
2022-07-28T20:11:43.780Z,46.80
2022-07-28T20:14:12.076Z,46.30
2022-07-28T20:16:40.154Z,46.50
2022-07-28T20:19:15.596Z,46.80
2022-07-28T20:21:51.616Z,47.00
2022-07-28T20:24:24.293Z,47.30
2022-07-28T20:26:55.135Z,47.50
2022-07-28T20:29:29.648Z,47.70
2022-07-28T20:32:07.326Z,47.90
2022-07-28T20:34:38.634Z,48.00
2022-07-28T20:37:27.809Z,48.20
2022-07-28T20:40:00.037Z,48.40
2022-07-28T20:42:30.995Z,48.60
2022-07-28T20:44:59.152Z,48.80
2022-07-28T20:47:27.739Z,49.10
2022-07-28T20:49:57.655Z,49.30
2022-07-28T20:52:25.539Z,49.50
2022-07-28T20:54:54.870Z,49.70
2022-07-28T20:57:23.146Z,49.80
2022-07-28T20:59:52.901Z,49.90
2022-07-28T21:02:21.227Z,50.00
2022-07-28T21:04:50.548Z,50.00
2022-07-28T21:07:59.435Z,50.10
2022-07-28T21:10:07.784Z,50.20
2022-07-28T21:12:36.995Z,50.30
2022-07-28T21:15:10.259Z,50.40
2022-07-28T21:17:38.516Z,50.50
2022-07-28T21:20:07.231Z,50.50
2022-07-28T21:22:35.072Z,50.60
2022-07-28T21:25:02.897Z,50.70
2022-07-28T21:27:51.650Z,50.80
2022-07-28T21:30:19.911Z,50.90
2022-07-28T21:32:55.599Z,51.00
2022-07-28T21:35:23.637Z,51.20
2022-07-28T21:37:51.504Z,51.30
2022-07-28T21:40:19.426Z,51.30
2022-07-28T21:42:47.497Z,51.40
2022-07-28T21:45:15.442Z,51.40
2022-07-28T21:47:44.990Z,51.50
2022-07-28T21:50:14.273Z,51.60
2022-07-28T21:52:42.182Z,51.70
2022-07-28T21:55:10.951Z,51.70
2022-07-28T21:57:38.849Z,51.90
2022-07-28T22:00:09.624Z,52.00
2022-07-28T22:02:37.441Z,52.00
2022-07-28T22:05:11.045Z,52.20
2022-07-28T22:07:38.928Z,52.20
2022-07-28T22:10:07.497Z,52.30
2022-07-28T22:12:35.362Z,52.30
2022-07-28T22:15:03.178Z,52.40
2022-07-28T22:17:30.994Z,52.40
2022-07-28T22:19:58.809Z,52.50
2022-07-28T22:22:27.960Z,52.60
2022-07-28T22:24:55.724Z,52.60
2022-07-28T22:27:24.099Z,52.80
2022-07-28T22:29:52.461Z,52.90
2022-07-28T22:32:28.124Z,53.00
2022-07-28T22:34:57.490Z,53.10
2022-07-28T22:37:26.746Z,53.20
2022-07-28T22:39:54.670Z,53.30
2022-07-28T22:42:22.586Z,53.40
2022-07-28T22:44:50.351Z,53.50
2022-07-28T22:47:18.158Z,53.60
2022-07-28T22:49:46.084Z,53.60
2022-07-28T22:52:13.965Z,53.50
2022-07-28T22:54:43.063Z,53.70
2022-07-28T22:57:11.667Z,53.70
2022-07-28T22:59:40.200Z,53.80
2022-07-28T23:02:09.667Z,53.80
2022-07-28T23:04:39.603Z,53.80
2022-07-28T23:07:12.036Z,53.90
2022-07-28T23:09:40.517Z,53.70
2022-07-28T23:12:11.205Z,53.70
2022-07-28T23:14:39.061Z,53.90
2022-07-28T23:17:06.894Z,54.00
2022-07-28T23:19:34.669Z,54.00
2022-07-28T23:22:02.644Z,54.00
2022-07-28T23:24:30.463Z,54.00
2022-07-28T23:27:00.357Z,54.10
2022-07-28T23:29:29.510Z,54.10
2022-07-28T23:31:57.378Z,54.20
2022-07-28T23:34:25.356Z,54.20
2022-07-28T23:36:53.114Z,54.20
2022-07-28T23:39:20.923Z,54.30
2022-07-28T23:41:48.697Z,54.40
2022-07-28T23:44:16.859Z,54.30
2022-07-28T23:46:46.338Z,54.30
2022-07-28T23:49:14.545Z,54.40
2022-07-28T23:51:47.458Z,54.40
2022-07-28T23:54:17.049Z,54.30
2022-07-28T23:56:45.269Z,54.20
2022-07-28T23:59:14.532Z,54.20
